createdAt,value
2017-03-17T00:00:11.054Z,11.52
2017-03-17T00:00:32.888Z,11.65
2017-03-17T00:00:54.806Z,11.72
2017-03-17T00:01:16.598Z,11.82
2017-03-17T00:01:38.604Z,11.63
2017-03-17T00:02:00.555Z,11.51
2017-03-17T00:02:22.402Z,11.48
2017-03-17T00:02:44.142Z,11.55
2017-03-17T00:03:06.064Z,11.61
2017-03-17T00:03:28.199Z,11.62
2017-03-17T00:03:49.945Z,11.49
2017-03-17T00:04:11.695Z,11.45
2017-03-17T00:04:33.832Z,11.48
2017-03-17T00:05:00.667Z,11.47
2017-03-17T00:05:22.469Z,11.55
2017-03-17T00:05:44.188Z,11.54
2017-03-17T00:06:05.954Z,11.40
2017-03-17T00:06:27.681Z,11.25
2017-03-17T00:06:49.460Z,11.20
2017-03-17T00:08:04.554Z,11.41
2017-03-17T00:08:35.376Z,11.39
2017-03-17T00:08:57.204Z,11.40
2017-03-17T00:09:23.956Z,11.29
2017-03-17T00:09:45.956Z,11.17
2017-03-17T00:10:07.834Z,11.25
2017-03-17T00:10:29.618Z,11.30
2017-03-17T00:10:51.333Z,11.41
2017-03-17T00:11:13.194Z,11.38
2017-03-17T00:11:35.368Z,11.40
2017-03-17T00:11:57.148Z,11.27
2017-03-17T00:12:19.226Z,11.37
2017-03-17T00:12:41.368Z,11.34
2017-03-17T00:14:24.913Z,11.20
2017-03-17T00:14:47.168Z,11.24
2017-03-17T00:15:08.986Z,11.33
2017-03-17T00:15:46.055Z,11.33
2017-03-17T00:17:25.990Z,11.07
2017-03-17T00:18:28.501Z,11.03
2017-03-17T00:18:50.304Z,11.00
2017-03-17T00:19:14.684Z,10.94
2017-03-17T00:19:36.605Z,10.99
2017-03-17T00:19:58.486Z,11.09
2017-03-17T00:20:20.292Z,11.28
2017-03-17T00:20:42.478Z,11.19
2017-03-17T00:21:45.232Z,11.23
2017-03-17T00:22:07.121Z,11.00
2017-03-17T00:22:28.868Z,11.07
2017-03-17T00:22:50.784Z,11.28
2017-03-17T00:23:12.919Z,11.35
2017-03-17T00:23:35.102Z,11.26
2017-03-17T00:25:54.164Z,11.49
2017-03-17T00:26:15.873Z,11.45
2017-03-17T00:26:38.021Z,11.42
2017-03-17T00:27:00.075Z,11.21
2017-03-17T00:27:22.302Z,11.24
2017-03-17T00:27:44.040Z,11.30
2017-03-17T00:28:05.887Z,11.31
2017-03-17T00:28:27.639Z,11.31
2017-03-17T00:28:50.651Z,11.22
2017-03-17T00:29:12.559Z,11.15
2017-03-17T00:29:37.865Z,11.04
2017-03-17T00:29:59.986Z,10.95
2017-03-17T00:30:21.942Z,11.04
2017-03-17T00:30:43.974Z,11.18
2017-03-17T00:31:06.298Z,11.12
2017-03-17T00:31:28.227Z,11.12
2017-03-17T00:32:30.749Z,10.99
2017-03-17T00:32:53.746Z,11.03
2017-03-17T00:33:16.041Z,11.07
2017-03-17T00:33:38.057Z,10.94
2017-03-17T00:34:05.217Z,11.00
2017-03-17T00:34:27.294Z,11.06
2017-03-17T00:34:49.009Z,11.14
2017-03-17T00:35:11.227Z,11.08
2017-03-17T00:35:33.492Z,10.99
2017-03-17T00:35:55.187Z,11.01
2017-03-17T00:36:16.889Z,10.95
2017-03-17T00:36:38.683Z,10.92
2017-03-17T00:37:00.395Z,10.99
2017-03-17T00:37:22.284Z,11.08
2017-03-17T00:37:47.228Z,11.05
2017-03-17T00:38:23.109Z,10.94
2017-03-17T00:38:44.896Z,10.90
2017-03-17T00:39:07.235Z,10.70
2017-03-17T00:39:29.628Z,10.87
2017-03-17T00:39:51.404Z,10.73
2017-03-17T00:40:13.200Z,10.58
2017-03-17T00:40:39.823Z,10.48
2017-03-17T00:41:37.347Z,10.22
2017-03-17T00:41:59.236Z,10.06
2017-03-17T00:42:21.155Z,10.09
2017-03-17T00:42:42.888Z,10.27
2017-03-17T00:43:04.940Z,10.31
2017-03-17T00:43:29.858Z,10.25
2017-03-17T00:44:28.413Z,10.21
2017-03-17T00:44:50.112Z,10.36
2017-03-17T00:45:11.837Z,10.51
2017-03-17T00:45:33.638Z,10.61
2017-03-17T00:46:00.404Z,10.67
2017-03-17T00:46:22.154Z,10.65
2017-03-17T00:46:44.308Z,10.62
2017-03-17T00:47:10.808Z,10.66
2017-03-17T00:48:13.315Z,10.64
2017-03-17T00:48:40.150Z,10.59
2017-03-17T00:51:47.082Z,10.20
2017-03-17T00:52:08.867Z,10.14
2017-03-17T00:52:30.798Z,10.12
2017-03-17T00:52:52.721Z,10.07
2017-03-17T00:53:14.463Z,10.12
2017-03-17T00:53:50.335Z,10.25
2017-03-17T00:54:12.047Z,10.15
2017-03-17T00:54:33.878Z,10.02
2017-03-17T00:54:55.638Z,9.99
2017-03-17T00:55:17.462Z,10.05
2017-03-17T00:55:39.238Z,10.16
2017-03-17T00:56:01.328Z,10.21
2017-03-17T00:56:23.302Z,10.28
2017-03-17T00:56:45.144Z,10.27
2017-03-17T00:57:07.078Z,10.28
2017-03-17T00:57:29.190Z,10.25
2017-03-17T00:57:51.058Z,10.17
2017-03-17T00:58:12.827Z,10.14
2017-03-17T00:58:34.560Z,10.01
2017-03-17T00:58:57.005Z,9.97
2017-03-17T00:59:18.968Z,9.96
2017-03-17T00:59:43.426Z,10.03
2017-03-17T01:00:46.038Z,10.35
2017-03-17T01:01:07.916Z,10.45
2017-03-17T01:01:29.767Z,10.59
2017-03-17T01:01:52.327Z,10.64
2017-03-17T01:02:14.204Z,10.64
2017-03-17T01:02:35.986Z,10.72
2017-03-17T01:03:01.135Z,10.86
2017-03-17T01:03:23.003Z,10.78
2017-03-17T01:03:44.831Z,10.65
2017-03-17T01:04:07.133Z,10.52
2017-03-17T01:04:29.051Z,10.55
2017-03-17T01:04:51.154Z,10.65
2017-03-17T01:05:13.002Z,10.71
2017-03-17T01:05:34.789Z,10.80
2017-03-17T01:05:56.557Z,10.87
2017-03-17T01:06:18.725Z,10.95
2017-03-17T01:06:40.672Z,10.85
2017-03-17T01:07:02.649Z,10.84
2017-03-17T01:07:24.411Z,10.88
2017-03-17T01:07:46.177Z,10.94
2017-03-17T01:08:08.596Z,10.99
2017-03-17T01:08:33.424Z,10.95
2017-03-17T01:08:55.684Z,10.91
2017-03-17T01:09:17.520Z,10.97
2017-03-17T01:09:39.238Z,10.99
2017-03-17T01:10:01.437Z,11.15
2017-03-17T01:10:23.288Z,11.02
2017-03-17T01:10:45.089Z,10.98
2017-03-17T01:11:07.306Z,11.04
2017-03-17T01:11:29.059Z,11.08
2017-03-17T01:11:50.727Z,11.02
2017-03-17T01:12:12.438Z,10.88
2017-03-17T01:12:34.238Z,10.98
2017-03-17T01:12:56.166Z,11.06
2017-03-17T01:13:17.940Z,11.16
2017-03-17T01:13:39.737Z,11.26
2017-03-17T01:14:01.988Z,11.17
2017-03-17T01:14:24.349Z,11.26
2017-03-17T01:14:46.041Z,11.31
2017-03-17T01:15:07.767Z,11.39
2017-03-17T01:15:29.576Z,11.35
2017-03-17T01:15:51.372Z,11.41
2017-03-17T01:16:13.148Z,11.38
2017-03-17T01:16:35.404Z,11.30
2017-03-17T01:16:57.198Z,11.22
2017-03-17T01:17:18.929Z,11.17
2017-03-17T01:17:40.702Z,11.25
2017-03-17T01:18:02.595Z,11.30
2017-03-17T01:18:24.460Z,11.38
2017-03-17T01:18:46.713Z,11.48
2017-03-17T01:19:08.555Z,11.46
2017-03-17T01:19:30.350Z,11.48
2017-03-17T01:19:54.906Z,11.51
2017-03-17T01:20:16.614Z,11.41
2017-03-17T01:20:38.604Z,11.20
2017-03-17T01:21:00.471Z,11.02
2017-03-17T01:21:22.418Z,10.84
2017-03-17T01:21:44.654Z,10.87
2017-03-17T01:22:06.941Z,10.95
2017-03-17T01:22:31.823Z,11.00
2017-03-17T01:22:53.912Z,10.95
2017-03-17T01:23:15.667Z,10.97
2017-03-17T01:23:37.808Z,10.92
2017-03-17T01:24:02.476Z,10.94
2017-03-17T01:24:24.656Z,11.01
2017-03-17T01:24:46.348Z,11.03
2017-03-17T01:25:08.420Z,10.95
2017-03-17T01:25:30.202Z,10.99
2017-03-17T01:25:51.974Z,11.04
2017-03-17T01:26:13.662Z,11.15
2017-03-17T01:26:35.539Z,10.93
2017-03-17T01:26:57.451Z,10.92
2017-03-17T01:27:20.068Z,11.05
2017-03-17T01:27:56.386Z,10.93
2017-03-17T01:28:32.827Z,11.00
2017-03-17T01:28:54.827Z,11.08
2017-03-17T01:29:16.587Z,11.04
2017-03-17T01:29:38.825Z,10.91
2017-03-17T01:30:00.592Z,10.77
2017-03-17T01:30:27.314Z,10.81
2017-03-17T01:30:49.210Z,10.94
2017-03-17T01:31:11.118Z,10.85
2017-03-17T01:31:33.073Z,10.73
2017-03-17T01:31:54.968Z,10.74
2017-03-17T01:32:16.910Z,10.84
2017-03-17T01:32:38.686Z,10.92
2017-03-17T01:33:01.175Z,10.95
2017-03-17T01:33:22.975Z,10.94
2017-03-17T01:33:47.570Z,10.91
2017-03-17T01:34:09.470Z,10.84
2017-03-17T01:34:31.562Z,10.88
2017-03-17T01:34:53.500Z,10.78
2017-03-17T01:35:15.251Z,10.82
2017-03-17T01:35:40.089Z,10.88
2017-03-17T01:36:01.905Z,10.97
2017-03-17T01:36:24.003Z,10.99
2017-03-17T01:36:45.964Z,11.04
2017-03-17T01:37:07.923Z,11.10
2017-03-17T01:37:29.795Z,11.14
2017-03-17T01:37:51.641Z,11.09
2017-03-17T01:38:13.960Z,10.98
2017-03-17T01:38:35.691Z,10.93
2017-03-17T01:39:12.796Z,10.79
2017-03-17T01:40:15.871Z,11.15
2017-03-17T01:40:38.027Z,11.16
2017-03-17T01:40:59.800Z,11.03
2017-03-17T01:41:21.524Z,10.95
2017-03-17T01:41:43.370Z,10.97
2017-03-17T01:42:05.067Z,11.09
2017-03-17T01:42:26.957Z,11.10
2017-03-17T01:42:58.399Z,11.12
2017-03-17T01:43:20.181Z,11.18
2017-03-17T01:43:42.110Z,11.11
2017-03-17T01:44:03.861Z,10.98
2017-03-17T01:44:25.700Z,10.94
2017-03-17T01:44:47.463Z,10.86
2017-03-17T01:45:10.028Z,10.96
2017-03-17T01:45:31.805Z,11.00
2017-03-17T01:45:53.628Z,11.07
2017-03-17T01:46:16.219Z,11.22
2017-03-17T01:46:37.930Z,11.11
2017-03-17T01:46:59.688Z,11.07
2017-03-17T01:47:21.675Z,10.98
2017-03-17T01:47:43.379Z,10.97
2017-03-17T01:48:05.082Z,10.96
2017-03-17T01:48:26.823Z,11.06
2017-03-17T01:48:48.621Z,11.17
2017-03-17T01:49:10.364Z,11.26
2017-03-17T01:49:36.839Z,11.13
2017-03-17T01:49:58.548Z,11.13
2017-03-17T01:50:29.873Z,11.12
2017-03-17T01:50:51.573Z,11.21
2017-03-17T01:51:13.297Z,11.13
2017-03-17T01:51:35.018Z,10.98
2017-03-17T01:52:01.561Z,10.95
2017-03-17T01:52:23.269Z,11.02
2017-03-17T01:52:44.986Z,11.02
2017-03-17T01:53:11.550Z,11.02
2017-03-17T01:53:33.273Z,11.04
2017-03-17T01:53:59.851Z,10.98
2017-03-17T01:54:21.649Z,10.94
2017-03-17T01:54:48.218Z,11.00
2017-03-17T01:55:09.956Z,10.89
2017-03-17T01:55:31.748Z,10.86
2017-03-17T01:55:58.236Z,10.73
2017-03-17T01:56:19.943Z,10.72
2017-03-17T01:56:41.733Z,10.69
2017-03-17T01:57:12.992Z,10.76
2017-03-17T01:57:34.708Z,10.67
2017-03-17T01:57:56.561Z,10.69
2017-03-17T01:58:27.818Z,10.80
2017-03-17T01:58:49.574Z,10.70
2017-03-17T01:59:11.347Z,10.70
2017-03-17T01:59:33.076Z,10.59
2017-03-17T01:59:59.609Z,10.52
2017-03-17T02:00:21.478Z,10.57
2017-03-17T02:00:43.183Z,10.49
2017-03-17T02:01:09.649Z,10.46
2017-03-17T02:01:31.357Z,10.48
2017-03-17T02:02:33.887Z,10.78
2017-03-17T02:02:55.585Z,10.82
2017-03-17T02:03:17.294Z,10.62
2017-03-17T02:03:48.611Z,10.56
2017-03-17T02:04:10.349Z,10.65
2017-03-17T02:04:46.374Z,10.74
2017-03-17T02:05:13.524Z,10.64
2017-03-17T02:05:35.244Z,10.68
2017-03-17T02:05:56.935Z,10.63
2017-03-17T02:06:28.266Z,10.42
2017-03-17T02:06:49.969Z,10.40
2017-03-17T02:07:11.712Z,10.40
2017-03-17T02:07:33.467Z,10.45
2017-03-17T02:07:55.251Z,10.47
2017-03-17T02:08:26.527Z,10.50
2017-03-17T02:08:48.266Z,10.40
2017-03-17T02:09:10.080Z,10.45
2017-03-17T02:09:36.603Z,10.58
2017-03-17T02:09:58.329Z,10.54
2017-03-17T02:10:20.146Z,10.50
2017-03-17T02:10:46.635Z,10.58
2017-03-17T02:11:08.363Z,10.55
2017-03-17T02:11:34.935Z,10.31
2017-03-17T02:11:56.630Z,10.14
2017-03-17T02:12:18.385Z,10.27
2017-03-17T02:12:40.095Z,10.43
2017-03-17T02:13:01.909Z,10.47
2017-03-17T02:13:33.147Z,10.52
2017-03-17T02:13:54.876Z,10.47
2017-03-17T02:14:21.446Z,10.34
2017-03-17T02:14:43.171Z,10.32
2017-03-17T02:15:50.546Z,10.35
2017-03-17T02:16:12.279Z,10.34
2017-03-17T02:16:38.765Z,10.16
2017-03-17T02:17:00.479Z,10.17
2017-03-17T02:17:31.818Z,10.13
2017-03-17T02:17:53.550Z,10.20
2017-03-17T02:18:24.811Z,10.12
2017-03-17T02:19:17.555Z,10.16
2017-03-17T02:19:48.977Z,10.20
2017-03-17T02:20:15.478Z,10.19
2017-03-17T02:20:37.272Z,10.16
2017-03-17T02:21:08.533Z,10.23
2017-03-17T02:21:30.279Z,10.30
2017-03-17T02:22:01.580Z,10.29
2017-03-17T02:22:23.332Z,10.30
2017-03-17T02:22:45.057Z,10.19
2017-03-17T02:23:16.372Z,10.12
2017-03-17T02:23:38.139Z,10.11
2017-03-17T02:24:09.456Z,10.13
2017-03-17T02:25:16.742Z,10.18
2017-03-17T02:25:38.446Z,10.22
2017-03-17T02:26:00.148Z,10.09
2017-03-17T02:26:31.465Z,10.05
2017-03-17T02:26:53.194Z,10.04
2017-03-17T02:27:19.693Z,10.02
2017-03-17T02:27:41.411Z,9.97
2017-03-17T02:28:07.981Z,9.99
2017-03-17T02:28:34.451Z,10.04
2017-03-17T02:28:56.153Z,10.08
2017-03-17T02:29:22.728Z,10.08
2017-03-17T02:29:44.447Z,10.01
2017-03-17T02:30:10.937Z,9.90
2017-03-17T02:30:32.730Z,9.80
2017-03-17T02:30:54.531Z,9.90
2017-03-17T02:31:30.599Z,9.87
2017-03-17T02:31:57.625Z,9.84
2017-03-17T02:32:19.419Z,9.90
2017-03-17T02:32:45.887Z,9.98
2017-03-17T02:33:07.615Z,9.97
2017-03-17T02:33:34.174Z,10.00
2017-03-17T02:33:55.943Z,10.13
2017-03-17T02:34:22.444Z,10.16
2017-03-17T02:34:44.180Z,10.15
2017-03-17T02:35:10.737Z,10.10
2017-03-17T02:35:32.445Z,10.02
2017-03-17T02:35:54.143Z,10.01
2017-03-17T02:36:15.848Z,10.06
2017-03-17T02:36:47.185Z,10.14
2017-03-17T02:37:08.891Z,10.22
2017-03-17T02:37:30.628Z,10.11
2017-03-17T02:37:57.164Z,10.05
2017-03-17T02:38:18.883Z,10.20
2017-03-17T02:38:50.148Z,10.31
2017-03-17T02:39:11.964Z,10.21
2017-03-17T02:39:38.434Z,10.15
2017-03-17T02:40:09.694Z,10.15
2017-03-17T02:40:31.495Z,10.15
2017-03-17T02:40:53.199Z,10.07
2017-03-17T02:41:55.773Z,10.09
2017-03-17T02:42:17.476Z,10.04
2017-03-17T02:42:39.239Z,9.98
2017-03-17T02:43:46.513Z,9.70
2017-03-17T02:44:08.239Z,9.77
2017-03-17T02:44:29.951Z,9.76
2017-03-17T02:45:01.275Z,9.80
2017-03-17T02:45:22.993Z,9.77
2017-03-17T02:46:25.569Z,9.63
2017-03-17T02:47:28.111Z,9.81
2017-03-17T02:48:04.151Z,9.92
2017-03-17T02:48:31.286Z,9.89
2017-03-17T02:48:52.996Z,9.93
2017-03-17T02:49:29.156Z,10.02
2017-03-17T02:49:51.495Z,10.01
2017-03-17T02:50:13.218Z,9.98
2017-03-17T02:50:39.783Z,9.91
2017-03-17T02:51:01.500Z,9.91
2017-03-17T02:51:23.243Z,9.84
2017-03-17T02:51:59.269Z,9.64
2017-03-17T02:52:21.906Z,9.55
2017-03-17T02:52:43.594Z,9.75
2017-03-17T02:53:14.931Z,9.83
2017-03-17T02:53:36.627Z,9.86
2017-03-17T02:54:43.996Z,9.70
2017-03-17T02:55:05.702Z,9.72
2017-03-17T02:56:08.300Z,9.66
2017-03-17T02:56:30.004Z,9.66
2017-03-17T02:57:32.602Z,9.79
2017-03-17T02:57:54.350Z,9.84
2017-03-17T02:58:25.601Z,9.97
2017-03-17T02:58:47.386Z,9.81
2017-03-17T02:59:09.119Z,9.81
2017-03-17T02:59:30.860Z,9.81
2017-03-17T02:59:55.405Z,9.75
2017-03-17T03:00:17.300Z,9.69
2017-03-17T03:00:48.566Z,9.77
2017-03-17T03:01:10.262Z,9.80
2017-03-17T03:01:32.057Z,9.86
2017-03-17T03:01:58.561Z,9.90
2017-03-17T03:02:20.266Z,9.95
2017-03-17T03:02:42.037Z,9.95
2017-03-17T03:03:03.733Z,9.94
2017-03-17T03:03:34.979Z,9.95
2017-03-17T03:03:56.746Z,10.01
2017-03-17T03:04:18.439Z,10.03
2017-03-17T03:04:44.918Z,10.04
2017-03-17T03:05:06.638Z,10.01
2017-03-17T03:05:33.171Z,10.06
2017-03-17T03:05:59.676Z,10.10
2017-03-17T03:06:21.376Z,10.03
2017-03-17T03:06:43.072Z,10.03
2017-03-17T03:07:09.655Z,9.91
2017-03-17T03:07:36.130Z,10.00
2017-03-17T03:08:07.379Z,10.02
2017-03-17T03:08:29.149Z,10.08
2017-03-17T03:08:50.852Z,10.18
2017-03-17T03:09:12.557Z,10.22
2017-03-17T03:09:34.257Z,10.20
2017-03-17T03:09:56.010Z,10.22
2017-03-17T03:10:17.722Z,10.15
2017-03-17T03:11:25.109Z,10.15
2017-03-17T03:11:46.813Z,10.18
2017-03-17T03:12:13.316Z,10.15
2017-03-17T03:12:35.011Z,10.11
2017-03-17T03:12:56.790Z,10.20
2017-03-17T03:13:18.503Z,10.29
2017-03-17T03:13:40.222Z,10.27
2017-03-17T03:14:11.563Z,10.20
2017-03-17T03:14:33.276Z,10.25
2017-03-17T03:15:04.528Z,10.35
2017-03-17T03:15:26.327Z,10.30
2017-03-17T03:15:48.023Z,10.35
2017-03-17T03:16:09.732Z,10.35
2017-03-17T03:16:45.888Z,10.37
2017-03-17T03:17:08.230Z,10.36
2017-03-17T03:17:39.487Z,10.20
2017-03-17T03:18:01.268Z,10.18
2017-03-17T03:18:22.977Z,10.16
2017-03-17T03:18:54.225Z,10.13
2017-03-17T03:19:16.003Z,10.15
2017-03-17T03:20:18.507Z,10.15
2017-03-17T03:20:40.293Z,10.10
2017-03-17T03:21:01.995Z,10.14
2017-03-17T03:21:28.471Z,10.16
2017-03-17T03:21:50.174Z,10.22
2017-03-17T03:22:16.779Z,10.24
2017-03-17T03:22:38.499Z,10.23
2017-03-17T03:23:00.204Z,10.21
2017-03-17T03:23:21.907Z,10.23
2017-03-17T03:23:48.455Z,10.21
2017-03-17T03:24:10.148Z,10.22
2017-03-17T03:24:31.851Z,10.13
2017-03-17T03:25:03.161Z,10.06
2017-03-17T03:25:24.857Z,10.13
2017-03-17T03:25:46.549Z,10.11
2017-03-17T03:26:08.249Z,10.01
2017-03-17T03:26:30.016Z,9.97
2017-03-17T03:27:01.271Z,10.05
2017-03-17T03:27:22.959Z,10.08
2017-03-17T03:27:44.782Z,10.10
2017-03-17T03:28:20.842Z,10.17
2017-03-17T03:28:48.013Z,10.13
2017-03-17T03:29:09.792Z,10.10
2017-03-17T03:29:31.495Z,10.00
2017-03-17T03:29:53.196Z,10.04
2017-03-17T03:30:14.903Z,9.98
2017-03-17T03:30:36.688Z,9.97
2017-03-17T03:30:58.386Z,9.97
2017-03-17T03:31:20.075Z,9.99
2017-03-17T03:31:41.771Z,10.01
2017-03-17T03:32:08.314Z,10.04
2017-03-17T03:32:30.002Z,10.05
2017-03-17T03:32:56.482Z,10.01
2017-03-17T03:33:18.172Z,9.87
2017-03-17T03:33:44.836Z,9.81
2017-03-17T03:34:16.095Z,9.79
2017-03-17T03:34:37.787Z,9.76
2017-03-17T03:34:59.554Z,9.64
2017-03-17T03:35:26.038Z,9.63
2017-03-17T03:35:47.758Z,9.70
2017-03-17T03:36:09.471Z,9.75
2017-03-17T03:36:36.028Z,9.74
2017-03-17T03:36:57.699Z,9.64
2017-03-17T03:37:24.209Z,9.58
2017-03-17T03:37:45.929Z,9.62
2017-03-17T03:38:12.483Z,9.67
2017-03-17T03:38:34.173Z,9.69
2017-03-17T03:39:05.431Z,9.78
2017-03-17T03:39:27.242Z,9.91
2017-03-17T03:39:58.500Z,10.06
2017-03-17T03:40:20.202Z,10.16
2017-03-17T03:40:46.795Z,10.28
2017-03-17T03:41:08.537Z,10.31
2017-03-17T03:41:39.807Z,10.47
2017-03-17T03:42:06.328Z,10.57
2017-03-17T03:42:30.649Z,10.64
2017-03-17T03:42:52.347Z,10.42
2017-03-17T03:43:14.065Z,10.24
2017-03-17T03:43:35.830Z,10.20
2017-03-17T03:43:57.532Z,10.05
2017-03-17T03:44:24.003Z,10.01
2017-03-17T03:44:45.701Z,10.02
2017-03-17T03:45:07.465Z,10.04
2017-03-17T03:45:29.188Z,10.07
2017-03-17T03:45:55.664Z,9.95
2017-03-17T03:46:17.435Z,9.90
2017-03-17T03:46:39.190Z,9.95
2017-03-17T03:47:39.236Z,9.97
2017-03-17T03:48:00.977Z,9.94
2017-03-17T03:48:37.030Z,9.91
2017-03-17T03:49:02.064Z,9.85
2017-03-17T03:49:38.092Z,9.97
2017-03-17T03:50:00.358Z,9.98
2017-03-17T03:50:22.196Z,9.92
2017-03-17T03:50:58.246Z,9.95
2017-03-17T03:51:20.491Z,10.04
2017-03-17T03:51:42.267Z,10.09
2017-03-17T03:52:18.317Z,10.26
2017-03-17T03:52:40.578Z,10.33
2017-03-17T03:53:02.368Z,10.39
2017-03-17T03:53:28.851Z,10.39
2017-03-17T03:53:50.573Z,10.24
2017-03-17T03:54:21.909Z,10.32
2017-03-17T03:54:43.601Z,10.32
2017-03-17T03:55:05.300Z,10.27
2017-03-17T03:55:31.789Z,10.08
2017-03-17T03:55:53.572Z,9.91
2017-03-17T03:56:15.281Z,9.85
2017-03-17T03:56:41.760Z,9.85
2017-03-17T03:57:03.451Z,9.85
2017-03-17T03:57:25.230Z,9.90
2017-03-17T03:58:32.584Z,9.96
2017-03-17T03:58:59.124Z,10.02
2017-03-17T03:59:25.612Z,10.03
2017-03-17T03:59:47.319Z,9.95
2017-03-17T04:00:18.647Z,10.01
2017-03-17T04:00:40.361Z,10.04
2017-03-17T04:01:02.071Z,9.99
2017-03-17T04:01:28.557Z,10.06
2017-03-17T04:01:50.350Z,10.10
2017-03-17T04:02:16.827Z,10.25
2017-03-17T04:02:38.524Z,10.31
2017-03-17T04:03:00.306Z,10.21
2017-03-17T04:03:31.562Z,10.24
2017-03-17T04:03:53.309Z,10.31
2017-03-17T04:04:15.062Z,10.36
2017-03-17T04:05:17.564Z,10.53
2017-03-17T04:05:39.338Z,10.37
2017-03-17T04:06:01.043Z,10.29
2017-03-17T04:06:27.517Z,10.19
2017-03-17T04:06:49.209Z,10.22
2017-03-17T04:07:10.961Z,10.25
2017-03-17T04:07:32.668Z,10.29
2017-03-17T04:08:03.924Z,10.42
2017-03-17T04:08:25.700Z,10.36
2017-03-17T04:08:47.400Z,10.19
2017-03-17T04:09:35.705Z,10.16
2017-03-17T04:09:57.397Z,10.11
2017-03-17T04:10:19.096Z,10.08
2017-03-17T04:10:40.806Z,10.16
2017-03-17T04:11:03.665Z,10.28
2017-03-17T04:11:30.168Z,10.22
2017-03-17T04:11:51.876Z,10.27
2017-03-17T04:12:13.651Z,10.35
2017-03-17T04:12:35.461Z,10.34
2017-03-17T04:13:02.041Z,10.32
2017-03-17T04:13:23.809Z,10.29
2017-03-17T04:13:45.544Z,10.31
2017-03-17T04:14:16.880Z,10.37
2017-03-17T04:14:38.581Z,10.34
2017-03-17T04:15:14.645Z,10.41
2017-03-17T04:15:43.917Z,10.29
2017-03-17T04:16:10.440Z,10.37
2017-03-17T04:16:32.144Z,10.38
2017-03-17T04:17:03.458Z,10.37
2017-03-17T04:17:25.173Z,10.26
2017-03-17T04:17:51.652Z,10.29
2017-03-17T04:18:13.387Z,10.26
2017-03-17T04:19:20.701Z,10.34
2017-03-17T04:19:42.370Z,10.24
2017-03-17T04:20:08.927Z,9.99
2017-03-17T04:20:30.655Z,9.99
2017-03-17T04:21:06.718Z,10.07
2017-03-17T04:21:29.041Z,10.15
2017-03-17T04:21:55.533Z,10.06
2017-03-17T04:22:58.107Z,10.10
2017-03-17T04:23:24.587Z,10.19
2017-03-17T04:24:36.640Z,10.06
2017-03-17T04:24:58.353Z,10.10
2017-03-17T04:25:29.653Z,10.15
2017-03-17T04:25:51.366Z,10.13
2017-03-17T04:26:13.077Z,10.18
2017-03-17T04:27:20.378Z,10.28
2017-03-17T04:27:46.876Z,10.11
2017-03-17T04:28:08.557Z,10.11
2017-03-17T04:28:39.855Z,10.04
2017-03-17T04:29:01.598Z,10.05
2017-03-17T04:29:28.080Z,10.22
2017-03-17T04:29:49.817Z,10.21
2017-03-17T04:30:11.625Z,10.07
2017-03-17T04:30:38.103Z,10.03
2017-03-17T04:30:59.834Z,10.10
2017-03-17T04:32:03.314Z,10.01
2017-03-17T04:32:25.052Z,9.94
2017-03-17T04:32:51.536Z,9.90
2017-03-17T04:33:18.141Z,9.91
2017-03-17T04:33:39.852Z,9.75
2017-03-17T04:34:11.118Z,9.85
2017-03-17T04:34:32.907Z,9.93
2017-03-17T04:34:59.419Z,9.96
2017-03-17T04:35:21.154Z,9.90
2017-03-17T04:35:47.725Z,9.84
2017-03-17T04:36:09.446Z,9.91
2017-03-17T04:36:35.950Z,9.85
2017-03-17T04:36:57.680Z,9.87
2017-03-17T04:37:24.231Z,9.88
2017-03-17T04:37:50.716Z,9.92
2017-03-17T04:38:12.481Z,9.81
2017-03-17T04:39:15.600Z,9.82
2017-03-17T04:39:37.329Z,9.80
2017-03-17T04:40:03.865Z,9.82
2017-03-17T04:40:56.634Z,9.99
2017-03-17T04:41:18.345Z,9.98
2017-03-17T04:41:44.922Z,9.88
2017-03-17T04:42:06.680Z,9.83
2017-03-17T04:42:33.171Z,9.73
2017-03-17T04:42:54.901Z,9.85
2017-03-17T04:43:16.724Z,9.94
2017-03-17T04:43:52.757Z,9.87
2017-03-17T04:44:15.079Z,9.86
2017-03-17T04:45:22.400Z,9.80
2017-03-17T04:45:48.876Z,9.75
2017-03-17T04:46:10.614Z,9.83
2017-03-17T04:46:41.964Z,9.95
2017-03-17T04:47:03.730Z,9.92
2017-03-17T04:47:39.762Z,9.97
2017-03-17T04:48:02.118Z,9.95
2017-03-17T04:48:28.646Z,9.85
2017-03-17T04:48:59.916Z,9.86
2017-03-17T04:49:21.734Z,9.93
2017-03-17T04:49:48.212Z,9.98
2017-03-17T04:50:09.924Z,9.95
2017-03-17T04:50:31.709Z,9.90
2017-03-17T04:50:53.418Z,9.83
2017-03-17T04:51:15.152Z,9.80
2017-03-17T04:51:51.316Z,9.88
2017-03-17T04:52:13.671Z,9.84
2017-03-17T04:52:35.435Z,9.88
2017-03-17T04:52:57.191Z,9.84
2017-03-17T04:53:28.510Z,9.81
2017-03-17T04:53:50.236Z,9.80
2017-03-17T04:54:11.926Z,9.84
2017-03-17T04:54:43.315Z,9.88
2017-03-17T04:55:05.090Z,9.85
2017-03-17T04:56:12.452Z,9.87
2017-03-17T04:56:34.160Z,9.94
2017-03-17T04:57:10.224Z,9.88
2017-03-17T04:57:32.537Z,9.82
2017-03-17T04:57:54.249Z,9.82
2017-03-17T04:58:25.499Z,9.91
2017-03-17T04:58:47.266Z,9.94
2017-03-17T04:59:13.746Z,9.88
2017-03-17T04:59:35.522Z,9.81
2017-03-17T04:59:57.296Z,9.74
2017-03-17T05:00:33.425Z,9.82
2017-03-17T05:00:55.806Z,9.83
2017-03-17T05:01:17.551Z,9.76
2017-03-17T05:02:24.835Z,9.80
2017-03-17T05:02:46.555Z,9.78
2017-03-17T05:03:49.062Z,9.78
2017-03-17T05:04:10.878Z,9.75
2017-03-17T05:04:32.588Z,9.82
2017-03-17T05:04:54.436Z,9.84
2017-03-17T05:05:16.169Z,9.85
2017-03-17T05:05:37.893Z,9.77
2017-03-17T05:06:09.211Z,9.79
2017-03-17T05:06:30.926Z,9.65
2017-03-17T05:06:57.444Z,9.55
2017-03-17T05:07:19.174Z,9.64
2017-03-17T05:07:40.966Z,9.81
2017-03-17T05:08:07.467Z,9.90
2017-03-17T05:08:29.172Z,10.03
2017-03-17T05:08:55.728Z,10.08
2017-03-17T05:09:17.434Z,10.10
2017-03-17T05:09:43.969Z,10.18
2017-03-17T05:10:05.729Z,10.16
2017-03-17T05:10:32.285Z,10.13
2017-03-17T05:10:53.983Z,10.07
2017-03-17T05:11:20.536Z,10.08
2017-03-17T05:11:42.261Z,10.01
2017-03-17T05:12:04.049Z,10.07
2017-03-17T05:12:25.777Z,10.07
2017-03-17T05:12:52.249Z,10.09
2017-03-17T05:13:14.004Z,10.17
2017-03-17T05:13:40.557Z,10.19
2017-03-17T05:14:02.316Z,10.17
2017-03-17T05:14:24.035Z,10.11
2017-03-17T05:14:55.323Z,10.07
2017-03-17T05:15:17.048Z,10.01
2017-03-17T05:15:53.087Z,9.99
2017-03-17T05:16:24.934Z,10.05
2017-03-17T05:16:46.664Z,10.01
2017-03-17T05:17:22.716Z,10.02
2017-03-17T05:17:49.828Z,10.06
2017-03-17T05:18:11.518Z,9.85
2017-03-17T05:18:33.221Z,9.87
2017-03-17T05:18:54.928Z,9.92
2017-03-17T05:19:16.720Z,10.01
2017-03-17T05:19:43.234Z,10.08
2017-03-17T05:20:04.962Z,10.10
2017-03-17T05:20:29.602Z,10.23
2017-03-17T05:21:05.653Z,10.25
2017-03-17T05:21:32.664Z,10.22
2017-03-17T05:21:54.435Z,10.10
2017-03-17T05:22:16.176Z,10.09
2017-03-17T05:22:42.652Z,10.20
2017-03-17T05:23:09.231Z,10.16
2017-03-17T05:23:30.928Z,10.21
2017-03-17T05:23:57.421Z,10.13
2017-03-17T05:24:19.173Z,10.05
2017-03-17T05:24:45.735Z,9.97
2017-03-17T05:25:07.479Z,9.95
2017-03-17T05:25:29.211Z,10.02
2017-03-17T05:25:50.926Z,10.02
2017-03-17T05:26:12.717Z,9.99
2017-03-17T05:26:34.434Z,10.02
2017-03-17T05:26:56.138Z,10.04
2017-03-17T05:27:17.837Z,10.00
2017-03-17T05:27:39.792Z,9.99
2017-03-17T05:28:01.506Z,9.85
2017-03-17T05:28:23.274Z,9.92
2017-03-17T05:28:44.975Z,9.94
2017-03-17T05:29:06.909Z,9.80
2017-03-17T05:29:28.851Z,9.84
2017-03-17T05:29:51.031Z,9.87
2017-03-17T05:30:12.768Z,9.90
2017-03-17T05:30:34.620Z,9.97
2017-03-17T05:30:56.391Z,9.97
2017-03-17T05:31:18.122Z,9.97
2017-03-17T05:31:39.973Z,9.89
2017-03-17T05:32:01.676Z,9.88
2017-03-17T05:32:23.388Z,9.90
2017-03-17T05:32:45.094Z,9.94
2017-03-17T05:33:06.841Z,10.03
2017-03-17T05:33:28.554Z,9.99
2017-03-17T05:33:50.271Z,10.03
2017-03-17T05:34:21.630Z,10.00
2017-03-17T05:34:57.665Z,9.94
2017-03-17T05:35:23.387Z,9.86
2017-03-17T05:35:45.447Z,9.93
2017-03-17T05:36:13.301Z,9.92
2017-03-17T05:36:35.246Z,9.95
2017-03-17T05:36:57.224Z,9.99
2017-03-17T05:37:19.088Z,10.03
2017-03-17T05:37:45.642Z,10.04
2017-03-17T05:38:07.364Z,10.08
2017-03-17T05:38:29.278Z,10.14
2017-03-17T05:38:51.002Z,10.13
2017-03-17T05:39:12.967Z,10.04
2017-03-17T05:39:34.697Z,10.01
2017-03-17T05:39:56.461Z,10.04
2017-03-17T05:40:18.178Z,10.02
2017-03-17T05:40:39.935Z,9.99
2017-03-17T05:41:01.667Z,10.03
2017-03-17T05:41:23.481Z,10.03